Time;durP1;ratioP1;P1;durP2;ratioP2;P2;SDS_P1;SDS_P2;PMS_P1;PMS_P2;Temp;Humidity;BMP_temperature;BMP_pressure;BME280_temperature;BME280_humidity;BME280_pressure;Samples;Min_cycle;Max_cycle;Signal;HPM_P1;HPM_P2
2021/11/20 00:02:01;;;;;;;21.10;12.30;;;9.50;99.90;;;7.95;100.00;102536.88;2567287;30;137983;-39
2021/11/20 00:04:30;;;;;;;23.73;13.75;;;9.50;99.90;;;7.90;100.00;102536.50;2565397;30;137441;-38
2021/11/20 00:07:00;;;;;;;24.92;13.30;;;9.50;99.90;;;7.97;100.00;102542.19;2567233;30;137217;-38
2021/11/20 00:09:29;;;;;;;23.52;13.07;;;9.50;99.90;;;7.97;100.00;102539.47;2569530;30;137408;-38
2021/11/20 00:12:07;;;;;;;24.90;13.25;;;9.50;99.90;;;7.99;100.00;102530.13;2569605;30;138409;-38
2021/11/20 00:14:35;;;;;;;;;;;9.50;99.90;;;7.98;100.00;102527.59;2570617;30;138501;-38
2021/11/20 00:17:05;;;;;;;28.98;14.07;;;9.60;99.90;;;8.05;100.00;102528.66;2567941;30;137465;-39
2021/11/20 00:19:35;;;;;;;29.92;16.25;;;9.60;99.90;;;8.06;100.00;102530.38;2569217;30;138232;-38
2021/11/20 00:22:35;;;;;;;31.50;16.17;;;9.60;99.90;;;8.08;100.00;102528.34;2570002;30;139394;-38
2021/11/20 00:25:11;;;;;;;27.48;15.73;;;9.60;99.90;;;8.09;100.00;102529.19;2569692;30;137644;-39
2021/11/20 00:27:39;;;;;;;28.25;15.00;;;9.70;99.90;;;8.04;100.00;102519.66;2569303;30;139004;-38
2021/11/20 00:30:18;;;;;;;27.00;15.80;;;9.60;99.90;;;8.11;100.00;102529.94;2570869;30;137552;-39
2021/11/20 00:32:53;;;;;;;27.90;14.98;;;9.60;99.90;;;8.12;100.00;102527.03;2569950;30;139392;-38
2021/11/20 00:35:33;;;;;;;24.67;14.15;;;9.70;99.90;;;8.14;100.00;102518.75;2567941;30;137875;-38
2021/11/20 00:38:03;;;;;;;25.90;13.73;;;9.70;99.90;;;8.16;100.00;102516.72;2569386;30;138284;-38
2021/11/20 00:40:46;;;;;;;26.17;15.50;;;9.70;99.90;;;8.15;100.00;102523.16;2565902;30;137852;-38
2021/11/20 00:43:18;;;;;;;25.15;14.50;;;9.70;99.90;;;8.15;100.00;102515.84;2568395;30;139525;-38
2021/11/20 00:45:47;;;;;;;29.58;15.20;;;9.70;99.90;;;8.15;100.00;102526.72;2569371;30;137702;-39
2021/11/20 00:48:20;;;;;;;25.17;14.32;;;9.70;99.90;;;8.13;100.00;102517.88;2569819;30;138557;-39
2021/11/20 00:50:55;;;;;;;25.70;14.02;;;9.70;99.90;;;8.15;100.00;102520.44;2568720;30;137741;-38
2021/11/20 00:53:23;;;;;;;24.85;14.38;;;9.70;99.90;;;8.16;100.00;102520.28;2567678;30;138648;-38
2021/11/20 00:55:51;;;;;;;26.63;14.57;;;9.70;99.90;;;8.17;100.00;102519.25;2566515;30;138822;-38
2021/11/20 00:58:21;;;;;;;25.00;14.02;;;9.70;99.90;;;8.16;100.00;102520.28;2569313;30;138541;-39
2021/11/20 01:00:56;;;;;;;22.67;13.48;;;9.70;99.90;;;8.15;100.00;102521.28;2569062;30;139131;-38
2021/11/20 01:03:28;;;;;;;23.17;13.40;;;9.70;99.90;;;8.15;100.00;102524.00;2567672;30;139924;-38
2021/11/20 01:05:58;;;;;;;26.38;13.27;;;9.70;99.90;;;8.13;100.00;102514.31;2565826;30;139259;-38
2021/11/20 01:08:35;;;;;;;24.48;14.20;;;9.70;99.90;;;8.14;100.00;102511.41;2568847;30;137915;-38
2021/11/20 01:11:29;;;;;;;27.02;15.73;;;9.70;99.90;;;8.16;100.00;102511.28;2568576;30;139959;-38
2021/11/20 01:14:01;;;;;;;27.27;15.18;;;9.70;99.90;;;8.21;100.00;102511.66;2568647;30;140775;-38
2021/11/20 01:16:30;;;;;;;28.50;15.50;;;9.70;99.90;;;8.21;100.00;102503.50;2567986;30;139048;-38
2021/11/20 01:19:00;;;;;;;26.67;15.10;;;9.70;99.90;;;8.20;100.00;102504.50;2566268;30;139222;-38
2021/11/20 01:21:57;;;;;;;25.23;13.93;;;9.70;99.90;;;8.20;100.00;102499.06;2568994;30;136849;-38
2021/11/20 01:24:26;;;;;;;27.58;15.75;;;9.80;99.90;;;8.23;100.00;102498.75;2566706;30;137475;-38
2021/11/20 01:26:57;;;;;;;25.63;15.55;;;9.80;99.90;;;8.24;100.00;102486.88;2568113;30;137907;-38
2021/11/20 01:29:26;;;;;;;27.30;15.75;;;9.80;99.90;;;8.27;100.00;102493.88;2570071;30;139012;-38
2021/11/20 01:31:57;;;;;;;31.83;17.42;;;9.80;99.90;;;8.29;100.00;102494.56;2568533;30;137865;-38
2021/11/20 01:34:27;;;;;;;30.42;16.35;;;9.80;99.90;;;8.29;100.00;102489.13;2567423;30;139843;-39
2021/11/20 01:37:00;;;;;;;34.67;18.42;;;9.80;99.90;;;8.30;100.00;102490.84;2569663;30;137778;-38
2021/11/20 01:39:33;;;;;;;29.88;16.75;;;9.80;99.90;;;8.30;100.00;102486.25;2565248;30;138472;-38
2021/11/20 01:42:30;;;;;;;31.40;17.88;;;9.80;99.90;;;8.33;100.00;102482.38;2568980;30;137516;-38
2021/11/20 01:45:23;;;;;;;28.40;15.77;;;9.80;99.90;;;8.32;100.00;102475.22;2566959;30;137212;-38
2021/11/20 01:48:12;;;;;;;28.17;15.45;;;9.80;99.90;;;8.30;100.00;102479.97;2569624;30;138365;-38
2021/11/20 01:50:43;;;;;;;31.63;15.93;;;9.80;99.90;;;8.26;100.00;102464.97;2568988;30;139342;-38
2021/11/20 01:53:48;;;;;;;29.70;16.17;;;9.80;99.90;;;8.33;100.00;102471.50;2570461;30;139147;-38
2021/11/20 01:56:36;;;;;;;27.35;16.70;;;9.80;99.90;;;8.32;100.00;102473.34;2568458;30;138247;-38
2021/11/20 01:59:18;;;;;;;31.63;17.20;;;9.80;99.90;;;8.32;100.00;102467.06;2567860;30;137588;-38
2021/11/20 02:02:18;;;;;;;33.58;17.80;;;9.80;99.90;;;8.33;100.00;102457.88;2565930;30;137388;-38
2021/11/20 02:05:31;;;;;;;33.13;17.48;;;9.80;99.90;;;8.34;100.00;102462.31;2569798;30;138378;-38
2021/11/20 02:08:43;;;;;;;29.00;15.95;;;9.90;99.90;;;8.31;100.00;102451.75;2570377;30;139743;-38
2021/11/20 02:11:30;;;;;;;31.35;17.17;;;9.80;99.90;;;8.31;100.00;102451.75;2566563;30;139562;-38
2021/11/20 02:13:58;;;;;;;30.73;16.25;;;9.90;99.90;;;8.30;100.00;102450.06;2568024;30;139030;-39
2021/11/20 02:17:15;;;;;;;30.73;17.08;;;9.80;99.90;;;8.31;100.00;102446.31;2568355;30;138583;-38
2021/11/20 02:19:52;;;;;;;32.47;17.85;;;9.80;99.90;;;8.31;100.00;102440.88;2568417;30;139607;-39
2021/11/20 02:22:35;;;;;;;31.48;17.35;;;9.90;99.90;;;8.30;100.00;102450.06;2572004;30;137552;-38
2021/11/20 02:25:04;;;;;;;30.60;16.38;;;9.80;99.90;;;8.30;100.00;102444.63;2567902;30;140517;-38
2021/11/20 02:27:54;;;;;;;30.73;16.63;;;9.90;99.90;;;8.29;100.00;102434.75;2568359;30;137066;-38
2021/11/20 02:30:32;;;;;;;32.08;16.73;;;9.80;99.90;;;8.28;100.00;102435.75;2568619;30;137568;-39
2021/11/20 02:33:13;;;;;;;28.53;16.00;;;9.80;99.90;;;8.27;100.00;102439.50;2567453;30;138034;-39
2021/11/20 02:35:58;;;;;;;27.25;15.82;;;9.80;99.90;;;8.25;100.00;102436.91;2571148;30;139192;-38
2021/11/20 02:38:35;;;;;;;28.73;15.60;;;9.80;99.90;;;8.28;100.00;102438.47;2569641;30;139311;-38
2021/11/20 02:41:06;;;;;;;29.52;16.33;;;9.80;99.90;;;8.27;100.00;102434.06;2568186;30;139002;-38
2021/11/20 02:43:42;;;;;;;31.88;17.20;;;9.80;99.90;;;8.27;100.00;102439.50;2568125;30;139783;-38
2021/11/20 02:46:22;;;;;;;28.02;16.08;;;9.80;99.90;;;8.25;100.00;102434.19;2567557;30;140037;-38
2021/11/20 02:48:50;;;;;;;28.45;15.98;;;9.80;99.90;;;8.26;100.00;102432.34;2567842;30;138753;-39
2021/11/20 02:51:26;;;;;;;30.05;16.42;;;9.80;99.90;;;8.26;100.00;102432.34;2568493;30;139148;-38
2021/11/20 02:54:02;;;;;;;29.63;16.60;;;9.80;99.90;;;8.28;100.00;102425.72;2568527;30;138936;-38
2021/11/20 02:56:46;;;;;;;29.45;15.90;;;9.80;99.90;;;8.29;100.00;102430.16;2568804;30;140350;-38
2021/11/20 02:59:15;;;;;;;30.48;17.00;;;9.80;99.90;;;8.29;100.00;102427.44;2568936;30;140272;-38
2021/11/20 03:01:49;;;;;;;31.30;16.55;;;9.80;99.90;;;8.28;100.00;102424.88;2568289;30;138268;-38
2021/11/20 03:04:21;;;;;;;31.13;16.38;;;9.80;99.90;;;8.25;100.00;102425.19;2569045;30;138882;-38
2021/11/20 03:06:52;;;;;;;30.20;16.35;;;9.80;99.90;;;8.25;100.00;102422.47;2567671;30;138146;-39
2021/11/20 03:09:26;;;;;;;28.98;17.27;;;9.80;99.90;;;8.26;100.00;102410.59;2568565;30;137799;-38
2021/11/20 03:11:58;;;;;;;29.63;16.90;;;9.80;99.90;;;8.25;100.00;102419.75;2568373;30;138146;-39
2021/11/20 03:14:27;;;;;;;31.70;17.55;;;9.80;99.90;;;8.26;100.00;102416.03;2569378;30;136892;-38
2021/11/20 03:17:08;;;;;;;37.33;19.25;;;9.80;99.90;;;8.30;100.00;102411.97;2567958;30;139021;-38
2021/11/20 03:19:47;;;;;;;39.30;20.80;;;9.80;99.90;;;8.33;100.00;102409.78;2568299;30;137985;-39
2021/11/20 03:22:21;;;;;;;34.85;18.52;;;9.80;99.90;;;8.33;100.00;102401.63;2568454;30;138382;-38
2021/11/20 03:24:50;;;;;;;36.88;18.35;;;9.90;99.90;;;8.34;100.00;102399.75;2567846;30;137781;-38
2021/11/20 03:35:05;;;;;;;37.72;18.58;;;9.90;99.90;;;8.40;100.00;102406.44;2568144;30;139865;-40
2021/11/20 03:37:36;;;;;;;40.70;20.63;;;9.90;99.90;;;8.35;100.00;102404.19;2568701;30;137110;-40
2021/11/20 03:40:08;;;;;;;36.83;19.25;;;9.90;99.90;;;8.38;100.00;102406.59;2567244;30;139655;-40
2021/11/20 03:42:36;;;;;;;36.40;18.98;;;9.90;99.90;;;8.38;100.00;102403.88;2567956;30;137421;-40
2021/11/20 03:45:07;;;;;;;38.45;19.23;;;9.90;99.90;;;8.35;100.00;102404.19;2567822;30;140710;-39
2021/11/20 03:47:36;;;;;;;39.92;20.40;;;9.90;99.90;;;8.34;100.00;102399.75;2567955;30;138333;-40
2021/11/20 03:50:08;;;;;;;38.92;20.23;;;9.90;99.90;;;8.33;100.00;102400.78;2565570;30;138152;-40
2021/11/20 03:52:36;;;;;;;35.50;18.27;;;9.90;99.90;;;8.30;100.00;102396.50;2568360;30;137259;-40
2021/11/20 03:55:05;;;;;;;;;;;9.80;99.90;;;8.29;100.00;102397.50;2566603;30;139614;-40
2021/11/20 03:57:32;;;;;;;39.45;19.02;;;9.80;99.90;;;8.29;100.00;102399.41;2568699;30;137435;-40
2021/11/20 04:00:00;;;;;;;40.72;19.45;;;9.80;99.90;;;8.29;100.00;102389.34;2568445;30;138145;-40
2021/11/20 04:02:28;;;;;;;36.85;18.88;;;9.80;99.90;;;8.27;100.00;102382.38;2568713;30;136801;-40
2021/11/20 04:04:57;;;;;;;36.15;18.13;;;9.80;99.90;;;8.26;100.00;102381.53;2565699;30;140068;-40
2021/11/20 04:07:24;;;;;;;38.15;19.23;;;9.80;99.90;;;8.27;100.00;102376.94;2568108;30;138836;-40
2021/11/20 04:09:52;;;;;;;42.15;20.67;;;9.80;99.90;;;8.27;100.00;102380.50;2567319;30;138723;-40
2021/11/20 04:12:19;;;;;;;36.72;18.98;;;9.80;99.90;;;8.26;100.00;102377.97;2567473;30;139673;-40
2021/11/20 04:14:47;;;;;;;40.50;18.80;;;9.80;99.90;;;8.24;100.00;102375.38;2567629;30;137961;-40
2021/11/20 04:17:15;;;;;;;40.33;19.35;;;9.80;99.90;;;8.23;100.00;102376.41;2568127;30;137223;-40
2021/11/20 04:19:43;;;;;;;36.17;18.45;;;9.80;99.90;;;8.23;100.00;102372.84;2568107;30;139899;-40
2021/11/20 04:22:11;;;;;;;40.75;18.20;;;9.80;99.90;;;8.23;100.00;102378.28;2566773;30;140565;-40
2021/11/20 04:24:40;;;;;;;47.08;20.95;;;9.80;99.90;;;8.28;100.00;102386.81;2568721;30;139437;-40
2021/11/20 04:27:16;;;;;;;39.20;19.52;;;9.80;99.90;;;8.30;100.00;102390.22;2567708;30;137387;-40
2021/11/20 04:30:11;;;;;;;37.97;18.88;;;9.80;99.90;;;8.29;100.00;102389.34;2567617;30;139787;-40
2021/11/20 04:32:40;;;;;;;39.67;19.55;;;9.80;99.90;;;8.31;100.00;102383.78;2567350;30;136990;-40
2021/11/20 04:35:10;;;;;;;41.42;18.63;;;9.80;99.90;;;8.29;100.00;102386.63;2566707;30;139599;-40
2021/11/20 04:37:38;;;;;;;41.70;19.88;;;9.80;99.90;;;8.29;100.00;102386.63;2565917;30;138584;-40
2021/11/20 04:40:07;;;;;;;40.45;20.30;;;9.80;99.90;;;8.29;100.00;102380.38;2568677;30;138216;-40
2021/11/20 04:42:37;;;;;;;41.53;20.17;;;9.80;99.90;;;8.28;100.00;102379.50;2568416;30;139031;-40
2021/11/20 04:45:09;;;;;;;41.00;19.38;;;9.80;99.90;;;8.32;100.00;102375.44;2567466;30;139551;-40
2021/11/20 04:47:36;;;;;;;41.90;19.27;;;9.80;99.90;;;8.33;100.00;102374.41;2568421;30;139658;-40
2021/11/20 04:50:07;;;;;;;42.58;19.38;;;9.80;99.90;;;8.30;100.00;102371.19;2566182;30;140087;-39
2021/11/20 04:52:36;;;;;;;39.45;18.23;;;9.80;99.90;;;8.29;100.00;102369.47;2566837;30;138713;-39
2021/11/20 04:55:08;;;;;;;43.25;19.45;;;9.80;99.90;;;8.30;100.00;102363.03;2566967;30;139387;-40
2021/11/20 04:57:39;;;;;;;38.38;18.35;;;9.80;99.90;;;8.31;100.00;102362.00;2567425;30;138580;-40
2021/11/20 05:00:41;;;;;;;42.58;19.67;;;9.80;99.90;;;8.30;100.00;102368.47;2567950;30;138455;-40
2021/11/20 05:03:12;;;;;;;39.63;18.08;;;9.80;99.90;;;8.31;100.00;102368.28;2567354;30;138328;-40
2021/11/20 05:05:45;;;;;;;42.10;19.40;;;9.80;99.90;;;8.33;100.00;102363.53;2566257;30;138172;-40
2021/11/20 05:08:16;;;;;;;43.13;18.95;;;9.90;99.90;;;8.32;100.00;102366.44;2567205;30;138863;-40
2021/11/20 05:10:49;;;;;;;38.50;18.35;;;9.90;99.90;;;8.32;100.00;102355.56;2568032;30;139480;-39
2021/11/20 05:13:19;;;;;;;39.08;18.10;;;9.80;99.90;;;8.33;100.00;102362.72;2565190;30;138754;-40
2021/11/20 05:15:51;;;;;;;38.97;18.40;;;9.90;99.90;;;8.30;100.00;102363.88;2567210;30;139254;-40
2021/11/20 05:18:19;;;;;;;42.40;19.17;;;9.80;99.90;;;8.28;100.00;102362.34;2567636;30;137251;-40
2021/11/20 05:20:59;;;;;;;40.60;18.92;;;9.80;99.90;;;8.22;100.00;102342.06;2568213;30;139367;-40
2021/11/20 05:23:35;;;;;;;39.08;18.02;;;9.80;99.90;;;8.22;100.00;102358.38;2567038;30;138496;-40
2021/11/20 05:26:07;;;;;;;40.33;19.13;;;9.80;99.90;;;8.20;100.00;102349.53;2566865;30;139673;-40
2021/11/20 05:28:36;;;;;;;36.35;17.63;;;9.80;99.90;;;8.21;100.00;102353.97;2565243;30;139262;-40
2021/11/20 05:31:04;;;;;;;36.20;17.27;;;9.70;99.90;;;8.19;100.00;102354.09;2568258;30;139599;-40
2021/11/20 05:33:39;;;;;;;34.42;17.15;;;9.70;99.90;;;8.17;100.00;102345.25;2566963;30;137624;-40
2021/11/20 05:36:12;;;;;;;33.70;15.73;;;9.70;99.90;;;8.16;100.00;102349.00;2566948;30;138320;-40
2021/11/20 05:38:40;;;;;;;35.88;16.38;;;9.70;99.90;;;8.12;100.00;102338.63;2568182;30;137609;-40
2021/11/20 05:41:10;;;;;;;38.10;17.83;;;9.70;99.90;;;8.13;100.00;102346.59;2567827;30;138178;-40
2021/11/20 05:43:45;;;;;;;36.38;17.63;;;9.70;99.90;;;8.12;100.00;102336.72;2568118;30;139746;-40
2021/11/20 05:46:40;;;;;;;36.90;17.85;;;9.70;99.90;;;8.10;100.00;102344.19;2567305;30;137078;-40
2021/11/20 05:49:08;;;;;;;35.90;16.95;;;9.70;99.90;;;8.09;100.00;102337.06;2568098;30;137807;-40
2021/11/20 05:51:37;;;;;;;39.92;18.20;;;9.60;99.90;;;8.09;100.00;102339.78;2567924;30;139447;-40
2021/11/20 05:54:09;;;;;;;31.55;15.07;;;9.70;99.90;;;8.09;100.00;102328.91;2566770;30;138455;-39
2021/11/20 05:56:38;;;;;;;35.40;16.90;;;9.60;99.90;;;8.07;100.00;102330.94;2567847;30;139727;-40
2021/11/20 05:59:27;;;;;;;41.63;17.92;;;9.60;99.90;;;8.07;100.00;102325.50;2565413;30;139421;-40
2021/11/20 06:01:56;;;;;;;35.38;16.00;;;9.70;99.90;;;8.07;100.00;102320.06;2567258;30;137337;-39
2021/11/20 06:04:29;;;;;;;32.42;14.88;;;9.60;99.90;;;8.06;100.00;102313.75;2565825;30;139103;-40
2021/11/20 06:06:58;;;;;;;32.72;15.57;;;9.60;99.90;;;8.05;100.00;102314.75;2567454;30;138211;-40
2021/11/20 06:09:27;;;;;;;34.08;16.10;;;9.60;99.90;;;8.03;100.00;102308.63;2567723;30;139086;-40
2021/11/20 06:11:54;;;;;;;31.25;15.48;;;9.60;99.90;;;8.04;100.00;102310.34;2566642;30;139129;-40
2021/11/20 06:14:22;;;;;;;33.15;15.77;;;9.60;99.90;;;8.06;100.00;102315.63;2566315;30;139171;-40
2021/11/20 06:16:50;;;;;;;32.55;15.25;;;9.60;99.90;;;8.05;100.00;102316.63;2567649;30;138442;-40
2021/11/20 06:19:19;;;;;;;33.83;16.63;;;9.60;99.90;;;8.04;100.00;102309.50;2566508;30;139386;-39
2021/11/20 06:21:48;;;;;;;33.58;14.23;;;9.60;99.90;;;8.03;100.00;102313.22;2567937;30;139788;-40
2021/11/20 06:24:16;;;;;;;34.50;16.83;;;9.60;99.90;;;8.03;100.00;102307.78;2567587;30;137536;-40
2021/11/20 06:26:46;;;;;;;33.90;16.25;;;9.60;99.90;;;8.03;100.00;102313.22;2567004;30;139355;-40
2021/11/20 06:29:15;;;;;;;35.22;16.70;;;9.60;99.90;;;8.03;100.00;102305.06;2567769;30;138758;-40
2021/11/20 06:31:49;;;;;;;39.47;18.27;;;9.60;99.90;;;8.07;100.00;102309.19;2568491;30;140482;-40
2021/11/20 06:34:34;;;;;;;33.65;15.85;;;9.60;99.90;;;8.08;100.00;102305.44;2568307;30;137398;-40
2021/11/20 06:37:21;;;;;;;34.05;17.27;;;9.60;99.90;;;8.09;100.00;102301.72;2567960;30;136870;-40
2021/11/20 06:40:22;;;;;;;34.38;16.85;;;9.60;99.90;;;8.10;100.00;102311.56;2565079;30;137424;-40
2021/11/20 06:42:52;;;;;;;32.40;15.80;;;9.60;99.90;;;8.13;100.00;102307.69;2567237;30;139411;-40
2021/11/20 06:45:26;;;;;;;33.72;17.02;;;9.60;99.90;;;8.11;100.00;102301.56;2567640;30;139013;-40
2021/11/20 06:47:55;;;;;;;33.63;15.75;;;9.70;99.90;;;8.13;100.00;102302.25;2567321;30;139280;-40
2021/11/20 06:50:25;;;;;;;32.60;15.48;;;9.70;99.90;;;8.09;100.00;102295.41;2568093;30;137608;-40
2021/11/20 06:53:15;;;;;;;33.97;15.90;;;9.70;99.90;;;8.12;100.00;102306.00;2567482;30;136865;-40
2021/11/20 06:56:04;;;;;;;34.05;15.88;;;9.70;99.90;;;8.12;100.00;102312.25;2567026;30;137505;-40
2021/11/20 06:59:16;;;;;;;34.38;14.52;;;9.70;99.90;;;8.11;100.00;102316.00;2567059;30;137750;-40
2021/11/20 07:01:47;;;;;;;34.17;16.42;;;9.70;99.90;;;8.12;100.00;102317.69;2568134;30;138904;-39
2021/11/20 07:04:25;;;;;;;34.95;15.65;;;9.70;99.90;;;8.12;100.00;102317.69;2567430;30;139673;-40
2021/11/20 07:07:05;;;;;;;37.20;16.20;;;9.70;99.90;;;8.17;100.00;102326.22;2568297;30;137673;-39
2021/11/20 07:09:34;;;;;;;33.63;16.70;;;9.70;99.90;;;8.16;100.00;102320.97;2564307;30;139388;-39
2021/11/20 07:12:03;;;;;;;34.53;16.60;;;9.70;99.90;;;8.14;100.00;102321.13;2567824;30;137464;-40
2021/11/20 07:14:33;;;;;;;32.25;15.23;;;9.70;99.90;;;8.12;100.00;102316.88;2567031;30;139829;-40
2021/11/20 07:17:01;;;;;;;33.78;15.70;;;9.70;99.90;;;8.16;100.00;102323.69;2566132;30;138487;-39
2021/11/20 07:19:35;;;;;;;35.63;16.60;;;9.70;99.90;;;8.15;100.00;102317.38;2567908;30;139511;-40
2021/11/20 07:22:23;;;;;;;33.20;15.98;;;9.70;99.90;;;8.19;100.00;102312.47;2568410;30;136842;-40
2021/11/20 07:24:54;;;;;;;35.80;16.13;;;9.70;99.90;;;8.24;100.00;102314.72;2567797;30;139309;-40
2021/11/20 07:27:23;;;;;;;36.92;16.80;;;9.70;99.90;;;8.20;100.00;102304.16;2569694;30;137544;-40
2021/11/20 07:29:51;;;;;;;35.63;16.45;;;9.80;99.90;;;8.23;100.00;102313.03;2567830;30;140450;-39
2021/11/20 07:32:28;;;;;;;35.17;15.68;;;9.80;99.90;;;8.24;100.00;102306.56;2567592;30;139062;-39
2021/11/20 07:34:56;;;;;;;35.35;16.58;;;9.80;99.90;;;8.18;100.00;102295.31;2568122;30;139863;-40
2021/11/20 07:37:24;;;;;;;36.15;16.23;;;9.80;99.90;;;8.23;100.00;102302.16;2568125;30;140041;-40
2021/11/20 07:39:52;;;;;;;34.53;16.45;;;9.80;99.90;;;8.25;100.00;102305.56;2568584;30;139043;-40
2021/11/20 07:42:20;;;;;;;33.45;17.05;;;9.80;99.90;;;8.32;100.00;102306.63;2568381;30;137915;-39
2021/11/20 07:45:11;;;;;;;37.85;17.00;;;9.80;99.90;;;8.33;100.00;102303.72;2565432;30;138317;-39
2021/11/20 07:47:56;;;;;;;35.20;16.50;;;9.80;99.90;;;8.36;100.00;102302.56;2568523;30;136922;-40
2021/11/20 07:50:24;;;;;;;;;;;9.90;99.90;;;8.37;100.00;102298.81;2568423;30;139088;-40
2021/11/20 07:52:52;;;;;;;36.70;16.48;;;9.90;99.90;;;8.37;100.00;102298.81;2569547;30;138804;-39
2021/11/20 07:55:19;;;;;;;35.80;16.92;;;9.90;99.90;;;8.40;100.00;102297.66;2565190;30;137165;-40
2021/11/20 07:57:56;;;;;;;34.72;16.65;;;9.90;99.90;;;8.39;100.00;102301.38;2568304;30;137136;-40
2021/11/20 08:00:26;;;;;;;37.03;16.65;;;9.90;99.90;;;8.44;100.00;102290.88;2568288;30;138551;-39
2021/11/20 08:03:02;;;;;;;35.65;16.50;;;9.90;99.90;;;8.43;100.00;102284.56;2565997;30;138534;-40
2021/11/20 08:05:55;;;;;;;36.13;15.57;;;10.00;99.90;;;8.42;100.00;102287.47;2568375;30;139673;-40
2021/11/20 08:08:41;;;;;;;36.15;16.85;;;9.90;99.90;;;8.42;100.00;102279.31;2568852;30;136924;-40
2021/11/20 08:11:16;;;;;;;30.58;15.15;;;9.90;99.90;;;8.47;100.00;102277.78;2565363;30;139441;-40
2021/11/20 08:13:46;;;;;;;32.92;15.90;;;10.00;99.90;;;8.50;100.00;102279.38;2567679;30;140167;-40
2021/11/20 08:16:22;;;;;;;35.15;16.52;;;10.00;99.90;;;8.51;100.00;102263.91;2568989;30;138268;-40
2021/11/20 08:19:12;;;;;;;31.70;15.52;;;10.00;99.90;;;8.56;100.00;102281.44;2567736;30;139794;-39
2021/11/20 08:22:11;;;;;;;33.35;15.60;;;10.10;99.90;;;8.66;100.00;102275.03;2566443;30;137465;-40
2021/11/20 08:24:39;;;;;;;34.42;17.00;;;10.10;99.90;;;8.66;100.00;102269.59;2567814;30;136876;-40
2021/11/20 08:27:12;;;;;;;32.45;15.25;;;10.10;99.90;;;8.68;100.00;102262.09;2568576;30;139365;-40
2021/11/20 08:29:51;;;;;;;32.85;16.23;;;10.20;99.90;;;8.68;100.00;102262.94;2567440;30;138560;-40
2021/11/20 08:32:19;;;;;;;32.70;16.00;;;10.20;99.90;;;8.68;100.00;102256.66;2567298;30;139723;-40
2021/11/20 08:35:00;;;;;;;38.58;16.83;;;10.20;99.90;;;8.70;100.00;102252.75;2567362;30;139131;-40
2021/11/20 08:37:52;;;;;;;35.25;16.42;;;10.20;99.90;;;8.77;100.00;102261.09;2567306;30;137401;-40
2021/11/20 08:40:45;;;;;;;33.33;16.13;;;10.20;99.90;;;8.76;100.00;102254.81;2568738;30;137819;-40
2021/11/20 08:43:14;;;;;;;34.30;16.65;;;10.30;99.90;;;8.77;100.00;102255.66;2567818;30;140628;-40
2021/11/20 08:45:50;;;;;;;32.78;16.52;;;10.30;99.90;;;8.75;100.00;102253.13;2567667;30;138735;-40
2021/11/20 08:48:20;;;;;;;35.08;17.15;;;10.20;99.90;;;8.77;100.00;102251.09;2566586;30;137462;-40
2021/11/20 08:51:14;;;;;;;31.25;15.18;;;10.30;99.90;;;8.81;100.00;102257.03;2565992;30;138034;-40
2021/11/20 08:53:45;;;;;;;35.40;17.00;;;10.30;99.90;;;8.84;100.00;102253.13;2567102;30;139836;-40
2021/11/20 08:56:13;;;;;;;32.65;16.40;;;10.30;99.90;;;8.87;100.00;102245.47;2567421;30;138391;-40
2021/11/20 08:58:46;;;;;;;32.60;15.90;;;10.30;99.90;;;8.91;100.00;102240.56;2568148;30;140368;-40
2021/11/20 09:01:49;;;;;;;33.97;16.47;;;10.40;99.90;;;8.97;100.00;102247.22;2566791;30;137592;-40
2021/11/20 09:04:39;;;;;;;34.58;16.15;;;10.40;99.90;;;8.98;100.00;102246.19;2567161;30;139172;-40
2021/11/20 09:07:30;;;;;;;31.92;15.25;;;10.50;99.90;;;8.96;100.00;102246.34;2568491;30;137048;-40
2021/11/20 09:10:31;;;;;;;38.03;16.92;;;10.50;99.90;;;9.00;100.00;102244.16;2566335;30;138665;-40
2021/11/20 09:13:33;;;;;;;34.95;16.75;;;10.40;99.90;;;9.03;100.00;102235.66;2567928;30;138729;-39
2021/11/20 09:16:10;;;;;;;32.22;16.10;;;10.50;99.90;;;9.11;100.00;102240.25;2567652;30;140570;-40
2021/11/20 09:18:40;;;;;;;36.22;16.70;;;10.50;99.90;;;9.13;100.00;102232.78;2566771;30;138970;-40
2021/11/20 09:21:13;;;;;;;30.95;15.70;;;10.60;99.90;;;9.07;100.00;102232.44;2565648;30;139912;-40
2021/11/20 09:23:59;;;;;;;29.23;15.88;;;10.60;99.90;;;9.15;100.00;102233.44;2568315;30;139157;-40
2021/11/20 09:26:35;;;;;;;34.10;15.77;;;10.60;99.90;;;9.16;100.00;102232.44;2567446;30;139659;-40
2021/11/20 09:29:10;;;;;;;30.90;15.70;;;10.60;99.90;;;9.18;100.00;102230.38;2568388;30;136677;-40
2021/11/20 09:31:42;;;;;;;34.25;16.63;;;10.60;99.90;;;9.23;100.00;102232.63;2567350;30;139829;-40
2021/11/20 09:34:12;;;;;;;29.85;14.98;;;10.60;99.90;;;9.17;100.00;102223.25;2576237;30;139861;-38
2021/11/20 09:36:47;;;;;;;31.55;15.25;;;10.70;99.90;;;9.23;100.00;102227.16;2568152;30;138430;-39
2021/11/20 09:39:22;;;;;;;30.83;15.32;;;10.70;99.90;;;9.20;100.00;102228.34;2569705;30;140239;-39
2021/11/20 09:42:15;;;;;;;31.38;15.35;;;10.70;99.90;;;9.26;100.00;102224.09;2566914;30;137858;-39
2021/11/20 09:44:50;;;;;;;31.00;15.82;;;10.70;99.90;;;9.27;100.00;102223.09;2566165;30;139451;-38
2021/11/20 09:47:34;;;;;;;30.48;15.43;;;10.70;99.90;;;9.27;99.53;102229.38;2567877;30;137924;-39
2021/11/20 09:50:29;;;;;;;33.00;16.00;;;10.70;99.90;;;9.31;99.54;102228.03;2567600;30;138693;-39
2021/11/20 09:53:00;;;;;;;29.35;15.43;;;10.70;99.90;;;9.32;98.47;102227.00;2569535;30;138300;-39
2021/11/20 09:55:43;;;;;;;28.23;15.07;;;10.80;99.90;;;9.36;98.67;102224.78;2569269;30;137009;-39
2021/11/20 09:58:34;;;;;;;29.70;15.75;;;10.80;99.90;;;9.41;98.54;102222.38;2568583;30;139106;-38
2021/11/20 10:01:20;;;;;;;31.40;15.85;;;10.80;99.90;;;9.43;98.46;102216.78;2568168;30;137717;-38
2021/11/20 10:04:15;;;;;;;27.85;13.98;;;10.80;99.90;;;9.49;97.70;102221.53;2570861;30;138419;-38
2021/11/20 10:06:53;;;;;;;27.77;14.38;;;10.90;99.90;;;9.47;97.70;102224.44;2569022;30;138333;-38
2021/11/20 10:09:20;;;;;;;31.05;15.30;;;10.90;99.90;;;9.46;97.95;102221.88;2567333;30;138376;-38
2021/11/20 10:12:21;;;;;;;27.88;14.60;;;10.90;99.90;;;9.49;97.78;102216.97;2569053;30;136966;-39
2021/11/20 10:14:59;;;;;;;26.75;13.48;;;10.90;99.90;;;9.53;97.03;102217.44;2569139;30;137896;-38
2021/11/20 10:17:53;;;;;;;28.58;13.38;;;10.90;99.90;;;9.53;96.62;102214.72;2568995;30;137044;-39
2021/11/20 10:20:50;;;;;;;29.85;13.90;;;10.90;99.90;;;9.51;97.37;102211.31;2567973;30;137508;-37
2021/11/20 10:23:39;;;;;;;24.33;12.23;;;10.90;99.90;;;9.56;96.12;102208.09;2568183;30;137413;-38
2021/11/20 10:26:21;;;;;;;26.55;13.40;;;11.00;99.90;;;9.57;96.29;102205.22;2565941;30;139104;-39
2021/11/20 10:29:03;;;;;;;22.58;12.35;;;11.00;99.90;;;9.56;95.86;102200.78;2568846;30;138997;-39
2021/11/20 10:31:47;;;;;;;24.30;11.80;;;11.00;99.90;;;9.57;97.09;102191.59;2570115;30;139072;-38
2021/11/20 10:34:28;;;;;;;25.35;13.38;;;11.00;99.90;;;9.58;95.20;102187.84;2570927;30;138316;-39
2021/11/20 10:37:05;;;;;;;23.25;12.35;;;11.00;99.90;;;9.59;96.51;102183.22;2567941;30;138261;-38
2021/11/20 10:39:35;;;;;;;24.58;13.43;;;11.00;99.90;;;9.62;96.65;102178.28;2567560;30;137539;-38
2021/11/20 10:42:17;;;;;;;26.40;13.25;;;11.00;99.90;;;9.66;94.67;102169.75;2567785;30;137306;-38
2021/11/20 10:44:51;;;;;;;21.88;12.75;;;11.10;99.90;;;9.64;95.29;102169.91;2568536;30;137553;-38
2021/11/20 10:47:21;;;;;;;24.00;12.13;;;11.10;99.90;;;9.68;93.49;102164.97;2569452;30;137347;-38